KCMH/CMH METAR and TAF weather

Enter ICAO airport designator
Station Type Date Time Source
KCMH METAR 2019/02/23 16:51 UTC NOAA

KCMH 231651Z 12010KT 10SM OVC016 07/02 A3007 RMK AO2 SLP187 T00670017


Station Type Date Time Source
KCMH Decoded METAR 2019/02/23 16:51 UTC NOAA

PORT COLUMBUS INTERNATIONAL AIRPORT, OH, United States (KCMH) 40-00N 82-53W 247M
Feb 23, 2019 - 11:51 AM EST / 2019.02.23 1651 UTC
Wind: from the ESE (120 degrees) at 12 MPH (10 KT):0
Visibility: 10 mile(s):0
Sky conditions: overcast
Temperature: 44.1 F (6.7 C)
Dew Point: 35.1 F (1.7 C)
Relative Humidity: 70%
Pressure (altimeter): 30.07 in. Hg (1018 hPa)
ob: KCMH 231651Z 12010KT 10SM OVC016 07/02 A3007 RMK AO2 SLP187 T00670017
cycle: 17

Station Type Date Time Source
KCMH TAF 2019/02/23 12:33 UTC NOAA

TAF KCMH 231130Z 2312/2412 10008KT P6SM OVC090
FM231500 12010KT P6SM VCSH OVC025
FM231800 13011KT P6SM VCSH OVC009
FM232200 15012KT P6SM VCSH OVC012
FM240200 16013KT P6SM -SHRA OVC012 WS020/20055KT
FM241000 21020G40KT P6SM VCSH BKN040


Example: see airport list